sensor_id;sensor_type;location;lat;lon;timestamp;P1;durP1;ratioP1;P2;durP2;ratioP2
15358;SDS011;7779;49.596;11.070;2023-02-28T00:01:21;3.37;;;1.90;;
15358;SDS011;7779;49.596;11.070;2023-02-28T00:03:47;3.33;;;1.67;;
15358;SDS011;7779;49.596;11.070;2023-02-28T00:06:13;1.70;;;1.60;;
15358;SDS011;7779;49.596;11.070;2023-02-28T00:08:39;1.90;;;1.70;;
15358;SDS011;7779;49.596;11.070;2023-02-28T00:11:07;2.67;;;1.70;;
15358;SDS011;7779;49.596;11.070;2023-02-28T00:13:37;2.40;;;1.87;;
15358;SDS011;7779;49.596;11.070;2023-02-28T00:16:07;2.10;;;1.70;;
15358;SDS011;7779;49.596;11.070;2023-02-28T00:18:38;2.10;;;1.63;;
15358;SDS011;7779;49.596;11.070;2023-02-28T00:21:04;2.00;;;1.70;;
15358;SDS011;7779;49.596;11.070;2023-02-28T00:23:31;3.23;;;1.90;;
15358;SDS011;7779;49.596;11.070;2023-02-28T00:25:58;2.63;;;1.90;;
15358;SDS011;7779;49.596;11.070;2023-02-28T00:28:24;2.20;;;2.00;;
15358;SDS011;7779;49.596;11.070;2023-02-28T00:30:49;2.57;;;1.50;;
15358;SDS011;7779;49.596;11.070;2023-02-28T00:33:15;2.20;;;1.70;;
15358;SDS011;7779;49.596;11.070;2023-02-28T00:35:41;2.93;;;1.90;;
15358;SDS011;7779;49.596;11.070;2023-02-28T00:38:08;2.17;;;1.40;;
15358;SDS011;7779;49.596;11.070;2023-02-28T00:40:33;2.20;;;1.60;;
15358;SDS011;7779;49.596;11.070;2023-02-28T00:42:59;3.60;;;2.03;;
15358;SDS011;7779;49.596;11.070;2023-02-28T00:45:25;2.37;;;1.70;;
15358;SDS011;7779;49.596;11.070;2023-02-28T00:47:51;1.83;;;1.50;;
15358;SDS011;7779;49.596;11.070;2023-02-28T00:50:17;2.80;;;1.80;;
15358;SDS011;7779;49.596;11.070;2023-02-28T00:52:45;3.17;;;1.93;;
15358;SDS011;7779;49.596;11.070;2023-02-28T00:55:13;5.47;;;2.07;;
15358;SDS011;7779;49.596;11.070;2023-02-28T00:57:39;2.30;;;2.00;;
15358;SDS011;7779;49.596;11.070;2023-02-28T01:00:05;2.73;;;1.90;;
15358;SDS011;7779;49.596;11.070;2023-02-28T01:02:32;2.63;;;1.90;;
15358;SDS011;7779;49.596;11.070;2023-02-28T01:04:58;3.70;;;2.13;;
15358;SDS011;7779;49.596;11.070;2023-02-28T01:07:24;2.33;;;1.80;;
15358;SDS011;7779;49.596;11.070;2023-02-28T01:09:50;2.67;;;2.23;;
15358;SDS011;7779;49.596;11.070;2023-02-28T01:12:15;2.50;;;1.87;;
15358;SDS011;7779;49.596;11.070;2023-02-28T01:14:41;1.97;;;1.50;;
15358;SDS011;7779;49.596;11.070;2023-02-28T01:17:07;3.40;;;1.87;;
15358;SDS011;7779;49.596;11.070;2023-02-28T01:19:34;2.00;;;1.80;;
15358;SDS011;7779;49.596;11.070;2023-02-28T01:22:02;2.67;;;1.90;;
15358;SDS011;7779;49.596;11.070;2023-02-28T01:24:30;2.30;;;2.07;;
15358;SDS011;7779;49.596;11.070;2023-02-28T01:26:56;2.63;;;2.00;;
15358;SDS011;7779;49.596;11.070;2023-02-28T01:29:22;3.40;;;2.00;;
15358;SDS011;7779;49.596;11.070;2023-02-28T01:31:47;2.27;;;1.63;;
15358;SDS011;7779;49.596;11.070;2023-02-28T01:34:13;3.67;;;1.97;;
15358;SDS011;7779;49.596;11.070;2023-02-28T01:36:39;1.73;;;1.50;;
15358;SDS011;7779;49.596;11.070;2023-02-28T01:39:04;2.17;;;1.73;;
15358;SDS011;7779;49.596;11.070;2023-02-28T01:41:32;2.73;;;2.17;;
15358;SDS011;7779;49.596;11.070;2023-02-28T01:44:04;2.20;;;2.00;;
15358;SDS011;7779;49.596;11.070;2023-02-28T01:46:52;2.47;;;1.97;;
15358;SDS011;7779;49.596;11.070;2023-02-28T01:49:17;2.80;;;1.50;;
15358;SDS011;7779;49.596;11.070;2023-02-28T01:51:51;2.67;;;1.97;;
15358;SDS011;7779;49.596;11.070;2023-02-28T01:54:25;2.00;;;1.80;;
15358;SDS011;7779;49.596;11.070;2023-02-28T01:57:01;2.43;;;1.90;;
15358;SDS011;7779;49.596;11.070;2023-02-28T01:59:37;3.77;;;2.13;;
15358;SDS011;7779;49.596;11.070;2023-02-28T02:02:15;3.73;;;2.10;;
15358;SDS011;7779;49.596;11.070;2023-02-28T02:04:57;2.67;;;1.90;;
15358;SDS011;7779;49.596;11.070;2023-02-28T02:07:27;3.17;;;1.90;;
15358;SDS011;7779;49.596;11.070;2023-02-28T02:10:03;2.30;;;2.00;;
15358;SDS011;7779;49.596;11.070;2023-02-28T02:13:08;2.70;;;1.80;;
15358;SDS011;7779;49.596;11.070;2023-02-28T02:16:03;2.50;;;2.20;;
15358;SDS011;7779;49.596;11.070;2023-02-28T02:18:50;3.53;;;2.20;;
15358;SDS011;7779;49.596;11.070;2023-02-28T02:42:37;4.67;;;2.43;;
15358;SDS011;7779;49.596;11.070;2023-02-28T02:45:54;3.97;;;2.23;;
15358;SDS011;7779;49.596;11.070;2023-02-28T02:48:29;3.03;;;2.00;;
15358;SDS011;7779;49.596;11.070;2023-02-28T02:50:59;3.23;;;2.03;;
15358;SDS011;7779;49.596;11.070;2023-02-28T02:53:37;3.07;;;1.90;;
15358;SDS011;7779;49.596;11.070;2023-02-28T02:56:14;3.73;;;2.57;;
15358;SDS011;7779;49.596;11.070;2023-02-28T02:58:44;2.73;;;2.10;;
15358;SDS011;7779;49.596;11.070;2023-02-28T03:01:18;3.00;;;2.23;;
15358;SDS011;7779;49.596;11.070;2023-02-28T03:04:06;3.73;;;2.53;;
15358;SDS011;7779;49.596;11.070;2023-02-28T03:06:37;2.97;;;2.30;;
15358;SDS011;7779;49.596;11.070;2023-02-28T03:09:03;2.90;;;2.60;;
15358;SDS011;7779;49.596;11.070;2023-02-28T03:11:29;3.00;;;2.50;;
15358;SDS011;7779;49.596;11.070;2023-02-28T03:14:18;3.00;;;2.40;;
15358;SDS011;7779;49.596;11.070;2023-02-28T03:17:26;2.83;;;2.00;;
15358;SDS011;7779;49.596;11.070;2023-02-28T03:20:35;3.57;;;2.47;;
15358;SDS011;7779;49.596;11.070;2023-02-28T03:23:36;2.70;;;2.00;;
15358;SDS011;7779;49.596;11.070;2023-02-28T03:26:18;2.90;;;2.57;;
15358;SDS011;7779;49.596;11.070;2023-02-28T03:31:32;4.00;;;2.60;;
15358;SDS011;7779;49.596;11.070;2023-02-28T03:34:08;4.33;;;2.30;;
15358;SDS011;7779;49.596;11.070;2023-02-28T03:36:51;4.80;;;2.93;;
15358;SDS011;7779;49.596;11.070;2023-02-28T03:39:23;4.80;;;2.53;;
15358;SDS011;7779;49.596;11.070;2023-02-28T03:42:03;4.10;;;2.27;;
15358;SDS011;7779;49.596;11.070;2023-02-28T03:44:51;3.43;;;2.40;;
15358;SDS011;7779;49.596;11.070;2023-02-28T03:47:25;3.17;;;2.40;;
15358;SDS011;7779;49.596;11.070;2023-02-28T03:50:05;3.47;;;2.87;;
15358;SDS011;7779;49.596;11.070;2023-02-28T03:52:39;3.43;;;2.37;;
15358;SDS011;7779;49.596;11.070;2023-02-28T03:55:13;3.90;;;2.50;;
15358;SDS011;7779;49.596;11.070;2023-02-28T03:57:47;2.80;;;2.00;;
15358;SDS011;7779;49.596;11.070;2023-02-28T04:00:30;2.60;;;2.10;;
15358;SDS011;7779;49.596;11.070;2023-02-28T04:03:03;3.63;;;2.60;;
15358;SDS011;7779;49.596;11.070;2023-02-28T04:05:29;3.57;;;2.60;;
15358;SDS011;7779;49.596;11.070;2023-02-28T04:08:06;4.43;;;2.60;;
15358;SDS011;7779;49.596;11.070;2023-02-28T04:10:33;3.57;;;2.60;;
15358;SDS011;7779;49.596;11.070;2023-02-28T04:12:59;4.00;;;3.10;;
15358;SDS011;7779;49.596;11.070;2023-02-28T04:15:24;3.27;;;2.70;;
15358;SDS011;7779;49.596;11.070;2023-02-28T04:17:52;3.87;;;2.83;;
15358;SDS011;7779;49.596;11.070;2023-02-28T04:20:18;3.97;;;2.40;;
15358;SDS011;7779;49.596;11.070;2023-02-28T04:22:44;3.43;;;2.80;;
15358;SDS011;7779;49.596;11.070;2023-02-28T04:25:09;3.40;;;2.73;;
15358;SDS011;7779;49.596;11.070;2023-02-28T04:27:35;3.90;;;2.60;;
15358;SDS011;7779;49.596;11.070;2023-02-28T04:30:01;3.50;;;2.73;;
15358;SDS011;7779;49.596;11.070;2023-02-28T04:32:27;5.17;;;2.83;;
15358;SDS011;7779;49.596;11.070;2023-02-28T04:34:53;2.90;;;2.50;;
15358;SDS011;7779;49.596;11.070;2023-02-28T04:37:19;3.33;;;2.67;;
15358;SDS011;7779;49.596;11.070;2023-02-28T04:39:44;3.57;;;2.47;;
15358;SDS011;7779;49.596;11.070;2023-02-28T04:42:10;3.30;;;2.60;;
15358;SDS011;7779;49.596;11.070;2023-02-28T04:44:36;3.37;;;2.60;;
15358;SDS011;7779;49.596;11.070;2023-02-28T04:47:02;3.13;;;2.83;;
15358;SDS011;7779;49.596;11.070;2023-02-28T04:49:28;3.80;;;2.40;;
15358;SDS011;7779;49.596;11.070;2023-02-28T04:51:53;5.40;;;3.80;;
15358;SDS011;7779;49.596;11.070;2023-02-28T04:54:19;4.40;;;2.63;;
15358;SDS011;7779;49.596;11.070;2023-02-28T04:56:45;4.77;;;3.20;;
15358;SDS011;7779;49.596;11.070;2023-02-28T04:59:11;4.23;;;3.13;;
15358;SDS011;7779;49.596;11.070;2023-02-28T05:01:36;3.10;;;2.60;;
15358;SDS011;7779;49.596;11.070;2023-02-28T05:04:03;5.03;;;3.43;;
15358;SDS011;7779;49.596;11.070;2023-02-28T05:06:30;5.60;;;3.33;;
15358;SDS011;7779;49.596;11.070;2023-02-28T05:08:58;4.23;;;3.00;;
15358;SDS011;7779;49.596;11.070;2023-02-28T05:11:33;5.03;;;3.43;;
15358;SDS011;7779;49.596;11.070;2023-02-28T05:14:00;3.93;;;3.47;;
15358;SDS011;7779;49.596;11.070;2023-02-28T05:16:28;4.73;;;4.23;;
15358;SDS011;7779;49.596;11.070;2023-02-28T05:18:53;6.70;;;5.07;;
15358;SDS011;7779;49.596;11.070;2023-02-28T05:23:50;8.83;;;6.60;;
15358;SDS011;7779;49.596;11.070;2023-02-28T05:26:16;10.27;;;6.33;;
15358;SDS011;7779;49.596;11.070;2023-02-28T05:28:42;15.70;;;11.27;;
15358;SDS011;7779;49.596;11.070;2023-02-28T05:31:09;7.13;;;4.77;;
15358;SDS011;7779;49.596;11.070;2023-02-28T05:33:36;7.37;;;4.70;;
15358;SDS011;7779;49.596;11.070;2023-02-28T05:36:02;6.30;;;3.87;;
15358;SDS011;7779;49.596;11.070;2023-02-28T05:38:28;13.13;;;7.90;;
15358;SDS011;7779;49.596;11.070;2023-02-28T05:40:54;6.40;;;4.67;;
15358;SDS011;7779;49.596;11.070;2023-02-28T05:43:20;7.70;;;5.97;;
15358;SDS011;7779;49.596;11.070;2023-02-28T05:45:45;5.43;;;4.00;;
15358;SDS011;7779;49.596;11.070;2023-02-28T05:48:11;5.13;;;3.90;;
15358;SDS011;7779;49.596;11.070;2023-02-28T05:50:36;5.17;;;3.60;;
15358;SDS011;7779;49.596;11.070;2023-02-28T05:53:02;5.77;;;4.10;;
15358;SDS011;7779;49.596;11.070;2023-02-28T05:55:28;6.60;;;4.20;;
15358;SDS011;7779;49.596;11.070;2023-02-28T05:57:54;4.77;;;3.60;;
15358;SDS011;7779;49.596;11.070;2023-02-28T06:00:21;4.83;;;3.60;;
15358;SDS011;7779;49.596;11.070;2023-02-28T06:02:47;6.07;;;3.97;;
15358;SDS011;7779;49.596;11.070;2023-02-28T06:05:14;5.13;;;4.20;;
15358;SDS011;7779;49.596;11.070;2023-02-28T06:07:43;7.10;;;3.47;;
15358;SDS011;7779;49.596;11.070;2023-02-28T06:10:10;6.30;;;3.70;;
15358;SDS011;7779;49.596;11.070;2023-02-28T06:12:37;4.93;;;3.80;;
15358;SDS011;7779;49.596;11.070;2023-02-28T06:15:03;4.40;;;3.47;;
15358;SDS011;7779;49.596;11.070;2023-02-28T06:17:29;4.87;;;3.93;;
15358;SDS011;7779;49.596;11.070;2023-02-28T06:19:55;4.43;;;3.80;;
15358;SDS011;7779;49.596;11.070;2023-02-28T06:22:21;4.77;;;3.63;;
15358;SDS011;7779;49.596;11.070;2023-02-28T06:24:46;4.13;;;3.40;;
15358;SDS011;7779;49.596;11.070;2023-02-28T06:27:12;4.50;;;3.47;;
15358;SDS011;7779;49.596;11.070;2023-02-28T06:29:38;5.50;;;3.93;;
15358;SDS011;7779;49.596;11.070;2023-02-28T06:32:06;4.97;;;4.10;;
15358;SDS011;7779;49.596;11.070;2023-02-28T06:34:32;4.20;;;3.27;;
15358;SDS011;7779;49.596;11.070;2023-02-28T06:36:59;3.87;;;3.37;;
15358;SDS011;7779;49.596;11.070;2023-02-28T06:39:28;4.47;;;3.70;;
15358;SDS011;7779;49.596;11.070;2023-02-28T06:41:55;9.37;;;3.97;;
15358;SDS011;7779;49.596;11.070;2023-02-28T06:44:21;5.33;;;4.10;;
15358;SDS011;7779;49.596;11.070;2023-02-28T06:46:48;4.50;;;3.63;;
15358;SDS011;7779;49.596;11.070;2023-02-28T06:49:14;4.93;;;4.00;;
15358;SDS011;7779;49.596;11.070;2023-02-28T06:51:42;5.60;;;4.23;;
15358;SDS011;7779;49.596;11.070;2023-02-28T06:54:12;5.10;;;3.70;;
15358;SDS011;7779;49.596;11.070;2023-02-28T06:56:38;5.50;;;4.67;;
15358;SDS011;7779;49.596;11.070;2023-02-28T06:59:04;6.60;;;4.50;;
15358;SDS011;7779;49.596;11.070;2023-02-28T07:01:30;5.73;;;4.43;;
15358;SDS011;7779;49.596;11.070;2023-02-28T07:03:57;5.17;;;4.30;;
15358;SDS011;7779;49.596;11.070;2023-02-28T07:06:25;5.70;;;3.87;;
15358;SDS011;7779;49.596;11.070;2023-02-28T07:08:52;6.93;;;5.23;;
15358;SDS011;7779;49.596;11.070;2023-02-28T07:11:19;5.57;;;4.50;;
15358;SDS011;7779;49.596;11.070;2023-02-28T07:13:48;4.97;;;4.47;;
15358;SDS011;7779;49.596;11.070;2023-02-28T07:16:15;7.23;;;5.20;;
15358;SDS011;7779;49.596;11.070;2023-02-28T07:18:41;6.07;;;4.27;;
15358;SDS011;7779;49.596;11.070;2023-02-28T07:21:08;6.20;;;4.50;;
15358;SDS011;7779;49.596;11.070;2023-02-28T07:23:35;7.17;;;4.47;;
15358;SDS011;7779;49.596;11.070;2023-02-28T07:26:04;5.63;;;4.37;;
15358;SDS011;7779;49.596;11.070;2023-02-28T07:28:31;7.27;;;4.63;;
15358;SDS011;7779;49.596;11.070;2023-02-28T07:31:02;5.67;;;5.07;;
15358;SDS011;7779;49.596;11.070;2023-02-28T07:33:30;7.20;;;4.60;;
15358;SDS011;7779;49.596;11.070;2023-02-28T07:36:02;5.83;;;4.60;;
15358;SDS011;7779;49.596;11.070;2023-02-28T07:38:33;7.13;;;5.03;;
15358;SDS011;7779;49.596;11.070;2023-02-28T07:41:03;6.17;;;4.63;;
15358;SDS011;7779;49.596;11.070;2023-02-28T07:43:29;7.37;;;5.00;;
15358;SDS011;7779;49.596;11.070;2023-02-28T07:46:10;7.67;;;5.17;;
15358;SDS011;7779;49.596;11.070;2023-02-28T07:48:40;6.43;;;5.27;;
15358;SDS011;7779;49.596;11.070;2023-02-28T07:51:06;12.63;;;5.70;;
15358;SDS011;7779;49.596;11.070;2023-02-28T07:53:32;6.83;;;4.83;;
15358;SDS011;7779;49.596;11.070;2023-02-28T07:55:58;7.87;;;4.63;;
15358;SDS011;7779;49.596;11.070;2023-02-28T07:58:27;11.70;;;5.23;;
15358;SDS011;7779;49.596;11.070;2023-02-28T08:00:55;7.17;;;4.90;;
15358;SDS011;7779;49.596;11.070;2023-02-28T08:03:22;10.37;;;5.67;;
15358;SDS011;7779;49.596;11.070;2023-02-28T08:05:49;8.13;;;5.80;;
15358;SDS011;7779;49.596;11.070;2023-02-28T08:08:15;7.10;;;5.17;;
15358;SDS011;7779;49.596;11.070;2023-02-28T08:10:42;6.27;;;4.63;;
15358;SDS011;7779;49.596;11.070;2023-02-28T08:13:08;6.90;;;4.87;;
15358;SDS011;7779;49.596;11.070;2023-02-28T08:15:34;11.63;;;6.23;;
15358;SDS011;7779;49.596;11.070;2023-02-28T08:17:59;12.23;;;6.20;;
15358;SDS011;7779;49.596;11.070;2023-02-28T08:20:25;8.93;;;5.47;;
15358;SDS011;7779;49.596;11.070;2023-02-28T08:22:52;6.37;;;4.70;;
15358;SDS011;7779;49.596;11.070;2023-02-28T08:25:17;9.63;;;5.20;;
15358;SDS011;7779;49.596;11.070;2023-02-28T08:27:43;6.57;;;5.17;;
15358;SDS011;7779;49.596;11.070;2023-02-28T08:30:10;7.53;;;5.30;;
15358;SDS011;7779;49.596;11.070;2023-02-28T08:32:39;6.97;;;5.73;;
15358;SDS011;7779;49.596;11.070;2023-02-28T08:35:05;6.70;;;5.20;;
15358;SDS011;7779;49.596;11.070;2023-02-28T08:37:32;10.77;;;5.60;;
15358;SDS011;7779;49.596;11.070;2023-02-28T08:39:57;6.23;;;5.40;;
15358;SDS011;7779;49.596;11.070;2023-02-28T08:42:23;6.53;;;5.20;;
15358;SDS011;7779;49.596;11.070;2023-02-28T08:44:49;6.93;;;5.33;;
15358;SDS011;7779;49.596;11.070;2023-02-28T08:47:15;7.20;;;5.10;;
15358;SDS011;7779;49.596;11.070;2023-02-28T08:49:41;9.40;;;5.30;;
15358;SDS011;7779;49.596;11.070;2023-02-28T08:52:07;8.40;;;5.73;;
15358;SDS011;7779;49.596;11.070;2023-02-28T08:54:33;6.70;;;5.00;;
15358;SDS011;7779;49.596;11.070;2023-02-28T08:56:59;5.70;;;4.83;;
15358;SDS011;7779;49.596;11.070;2023-02-28T08:59:25;6.40;;;5.60;;
15358;SDS011;7779;49.596;11.070;2023-02-28T09:01:51;6.23;;;5.47;;
15358;SDS011;7779;49.596;11.070;2023-02-28T09:04:17;5.77;;;4.87;;
15358;SDS011;7779;49.596;11.070;2023-02-28T09:06:42;6.90;;;4.93;;
15358;SDS011;7779;49.596;11.070;2023-02-28T09:09:09;7.43;;;5.47;;
15358;SDS011;7779;49.596;11.070;2023-02-28T09:11:35;7.17;;;4.83;;
15358;SDS011;7779;49.596;11.070;2023-02-28T09:14:02;6.23;;;4.83;;
15358;SDS011;7779;49.596;11.070;2023-02-28T09:16:28;6.37;;;4.53;;
15358;SDS011;7779;49.596;11.070;2023-02-28T09:18:56;6.70;;;5.27;;
15358;SDS011;7779;49.596;11.070;2023-02-28T09:21:22;15.67;;;6.07;;
15358;SDS011;7779;49.596;11.070;2023-02-28T09:23:49;7.77;;;4.93;;
15358;SDS011;7779;49.596;11.070;2023-02-28T09:26:22;10.50;;;5.27;;
15358;SDS011;7779;49.596;11.070;2023-02-28T09:28:51;8.87;;;4.50;;
15358;SDS011;7779;49.596;11.070;2023-02-28T09:31:19;7.17;;;5.10;;
15358;SDS011;7779;49.596;11.070;2023-02-28T09:33:50;9.87;;;4.73;;
15358;SDS011;7779;49.596;11.070;2023-02-28T09:36:18;5.53;;;4.40;;
15358;SDS011;7779;49.596;11.070;2023-02-28T09:38:44;6.37;;;4.83;;
15358;SDS011;7779;49.596;11.070;2023-02-28T09:41:15;5.63;;;3.97;;
15358;SDS011;7779;49.596;11.070;2023-02-28T09:43:51;4.93;;;4.43;;
15358;SDS011;7779;49.596;11.070;2023-02-28T09:46:43;6.53;;;3.93;;
15358;SDS011;7779;49.596;11.070;2023-02-28T09:49:12;5.87;;;4.27;;
15358;SDS011;7779;49.596;11.070;2023-02-28T09:54:14;7.23;;;4.63;;
15358;SDS011;7779;49.596;11.070;2023-02-28T09:56:47;7.73;;;4.73;;
15358;SDS011;7779;49.596;11.070;2023-02-28T10:02:49;4.93;;;3.87;;
15358;SDS011;7779;49.596;11.070;2023-02-28T10:05:24;4.67;;;4.00;;
15358;SDS011;7779;49.596;11.070;2023-02-28T10:08:17;6.73;;;4.40;;
15358;SDS011;7779;49.596;11.070;2023-02-28T10:10:55;4.53;;;3.83;;
15358;SDS011;7779;49.596;11.070;2023-02-28T10:16:25;5.47;;;4.00;;
15358;SDS011;7779;49.596;11.070;2023-02-28T10:18:55;7.30;;;4.63;;
15358;SDS011;7779;49.596;11.070;2023-02-28T10:21:36;4.90;;;3.60;;
15358;SDS011;7779;49.596;11.070;2023-02-28T10:24:32;5.23;;;4.00;;
15358;SDS011;7779;49.596;11.070;2023-02-28T10:27:15;4.53;;;3.40;;
15358;SDS011;7779;49.596;11.070;2023-02-28T10:29:45;5.13;;;3.97;;
15358;SDS011;7779;49.596;11.070;2023-02-28T10:32:18;6.20;;;4.03;;
15358;SDS011;7779;49.596;11.070;2023-02-28T10:34:51;6.80;;;4.00;;
15358;SDS011;7779;49.596;11.070;2023-02-28T10:37:24;5.47;;;4.43;;
15358;SDS011;7779;49.596;11.070;2023-02-28T10:39:50;6.70;;;4.03;;
15358;SDS011;7779;49.596;11.070;2023-02-28T10:42:20;5.57;;;3.90;;
15358;SDS011;7779;49.596;11.070;2023-02-28T10:45:14;5.60;;;3.73;;
15358;SDS011;7779;49.596;11.070;2023-02-28T10:56:02;4.63;;;3.30;;
15358;SDS011;7779;49.596;11.070;2023-02-28T11:09:45;5.57;;;3.90;;
15358;SDS011;7779;49.596;11.070;2023-02-28T11:12:29;5.23;;;4.03;;
15358;SDS011;7779;49.596;11.070;2023-02-28T11:15:07;3.93;;;3.33;;
15358;SDS011;7779;49.596;11.070;2023-02-28T11:17:54;5.93;;;3.77;;
15358;SDS011;7779;49.596;11.070;2023-02-28T11:20:24;8.30;;;3.40;;
15358;SDS011;7779;49.596;11.070;2023-02-28T11:22:53;4.83;;;3.50;;
15358;SDS011;7779;49.596;11.070;2023-02-28T11:28:34;4.33;;;3.57;;
15358;SDS011;7779;49.596;11.070;2023-02-28T11:33:49;4.20;;;3.33;;
15358;SDS011;7779;49.596;11.070;2023-02-28T11:36:22;4.07;;;3.60;;
15358;SDS011;7779;49.596;11.070;2023-02-28T11:38:58;3.67;;;2.90;;
15358;SDS011;7779;49.596;11.070;2023-02-28T11:50:42;5.03;;;3.60;;
15358;SDS011;7779;49.596;11.070;2023-02-28T11:53:23;5.30;;;3.93;;
15358;SDS011;7779;49.596;11.070;2023-02-28T11:59:01;4.60;;;3.80;;
15358;SDS011;7779;49.596;11.070;2023-02-28T12:02:06;3.50;;;3.20;;
15358;SDS011;7779;49.596;11.070;2023-02-28T12:07:47;4.87;;;3.67;;
15358;SDS011;7779;49.596;11.070;2023-02-28T12:10:28;4.00;;;3.13;;
15358;SDS011;7779;49.596;11.070;2023-02-28T12:13:29;3.87;;;3.47;;
15358;SDS011;7779;49.596;11.070;2023-02-28T12:16:39;4.67;;;4.10;;
15358;SDS011;7779;49.596;11.070;2023-02-28T12:19:38;5.33;;;3.73;;
15358;SDS011;7779;49.596;11.070;2023-02-28T12:22:29;4.20;;;3.80;;
15358;SDS011;7779;49.596;11.070;2023-02-28T12:28:11;4.97;;;3.37;;
15358;SDS011;7779;49.596;11.070;2023-02-28T12:30:54;5.63;;;3.70;;
15358;SDS011;7779;49.596;11.070;2023-02-28T12:33:57;4.77;;;3.47;;
15358;SDS011;7779;49.596;11.070;2023-02-28T12:36:29;5.93;;;3.93;;
15358;SDS011;7779;49.596;11.070;2023-02-28T12:39:03;5.40;;;3.40;;
15358;SDS011;7779;49.596;11.070;2023-02-28T12:46:58;7.17;;;4.23;;
15358;SDS011;7779;49.596;11.070;2023-02-28T12:49:39;5.07;;;3.90;;
15358;SDS011;7779;49.596;11.070;2023-02-28T12:52:30;5.23;;;4.20;;
15358;SDS011;7779;49.596;11.070;2023-02-28T12:58:07;5.50;;;4.60;;
15358;SDS011;7779;49.596;11.070;2023-02-28T13:01:14;5.97;;;3.97;;
15358;SDS011;7779;49.596;11.070;2023-02-28T13:10:14;5.63;;;4.60;;
15358;SDS011;7779;49.596;11.070;2023-02-28T13:12:47;5.60;;;4.10;;
15358;SDS011;7779;49.596;11.070;2023-02-28T13:15:25;5.93;;;4.60;;
15358;SDS011;7779;49.596;11.070;2023-02-28T13:17:54;5.60;;;4.30;;
15358;SDS011;7779;49.596;11.070;2023-02-28T13:20:24;5.83;;;4.40;;
15358;SDS011;7779;49.596;11.070;2023-02-28T13:23:02;7.53;;;4.60;;
15358;SDS011;7779;49.596;11.070;2023-02-28T13:27:59;8.07;;;4.33;;
15358;SDS011;7779;49.596;11.070;2023-02-28T13:38:46;4.73;;;4.07;;
15358;SDS011;7779;49.596;11.070;2023-02-28T13:47:15;6.83;;;4.80;;
15358;SDS011;7779;49.596;11.070;2023-02-28T13:49:46;5.20;;;3.87;;
15358;SDS011;7779;49.596;11.070;2023-02-28T13:52:14;5.67;;;4.47;;
15358;SDS011;7779;49.596;11.070;2023-02-28T13:54:56;5.20;;;4.07;;
15358;SDS011;7779;49.596;11.070;2023-02-28T13:58:10;4.63;;;4.10;;
15358;SDS011;7779;49.596;11.070;2023-02-28T14:04:01;5.13;;;4.23;;
15358;SDS011;7779;49.596;11.070;2023-02-28T14:06:58;4.90;;;4.00;;
15358;SDS011;7779;49.596;11.070;2023-02-28T14:09:29;5.73;;;3.97;;
15358;SDS011;7779;49.596;11.070;2023-02-28T14:12:50;7.47;;;4.43;;
15358;SDS011;7779;49.596;11.070;2023-02-28T14:18:26;4.43;;;4.03;;
15358;SDS011;7779;49.596;11.070;2023-02-28T14:35:43;6.47;;;4.87;;
15358;SDS011;7779;49.596;11.070;2023-02-28T14:38:22;6.23;;;4.80;;
15358;SDS011;7779;49.596;11.070;2023-02-28T14:40:53;7.70;;;4.70;;
15358;SDS011;7779;49.596;11.070;2023-02-28T14:43:27;5.80;;;4.47;;
15358;SDS011;7779;49.596;11.070;2023-02-28T14:45:54;5.53;;;4.37;;
15358;SDS011;7779;49.596;11.070;2023-02-28T14:48:24;5.40;;;4.67;;
15358;SDS011;7779;49.596;11.070;2023-02-28T14:50:52;6.20;;;4.80;;
15358;SDS011;7779;49.596;11.070;2023-02-28T14:53:22;6.47;;;5.23;;
15358;SDS011;7779;49.596;11.070;2023-02-28T14:55:52;7.13;;;5.13;;
15358;SDS011;7779;49.596;11.070;2023-02-28T14:58:25;7.33;;;5.43;;
15358;SDS011;7779;49.596;11.070;2023-02-28T15:00:55;6.33;;;4.93;;
15358;SDS011;7779;49.596;11.070;2023-02-28T15:03:30;6.80;;;5.47;;
15358;SDS011;7779;49.596;11.070;2023-02-28T15:06:15;7.80;;;5.03;;
15358;SDS011;7779;49.596;11.070;2023-02-28T15:08:43;7.07;;;5.20;;
15358;SDS011;7779;49.596;11.070;2023-02-28T15:11:13;5.90;;;4.70;;
15358;SDS011;7779;49.596;11.070;2023-02-28T15:13:50;6.57;;;4.63;;
15358;SDS011;7779;49.596;11.070;2023-02-28T15:16:25;5.70;;;4.73;;
15358;SDS011;7779;49.596;11.070;2023-02-28T15:19:00;7.07;;;4.60;;
15358;SDS011;7779;49.596;11.070;2023-02-28T15:22:06;6.67;;;4.70;;
15358;SDS011;7779;49.596;11.070;2023-02-28T15:24:42;6.27;;;5.03;;
15358;SDS011;7779;49.596;11.070;2023-02-28T15:27:24;7.23;;;5.33;;
15358;SDS011;7779;49.596;11.070;2023-02-28T15:29:54;7.97;;;5.50;;
15358;SDS011;7779;49.596;11.070;2023-02-28T15:32:35;6.43;;;4.70;;
15358;SDS011;7779;49.596;11.070;2023-02-28T15:35:25;7.33;;;5.07;;
15358;SDS011;7779;49.596;11.070;2023-02-28T15:40:28;6.30;;;5.33;;
15358;SDS011;7779;49.596;11.070;2023-02-28T15:43:04;6.03;;;4.80;;
15358;SDS011;7779;49.596;11.070;2023-02-28T15:45:34;6.47;;;5.23;;
15358;SDS011;7779;49.596;11.070;2023-02-28T15:48:13;7.23;;;5.43;;
15358;SDS011;7779;49.596;11.070;2023-02-28T15:50:57;7.17;;;5.20;;
15358;SDS011;7779;49.596;11.070;2023-02-28T15:53:35;7.23;;;5.03;;
15358;SDS011;7779;49.596;11.070;2023-02-28T15:56:15;7.63;;;5.87;;
15358;SDS011;7779;49.596;11.070;2023-02-28T15:58:50;6.27;;;4.73;;
15358;SDS011;7779;49.596;11.070;2023-02-28T16:01:25;6.83;;;5.30;;
15358;SDS011;7779;49.596;11.070;2023-02-28T16:04:04;6.20;;;5.00;;
15358;SDS011;7779;49.596;11.070;2023-02-28T16:09:29;7.43;;;5.30;;
15358;SDS011;7779;49.596;11.070;2023-02-28T16:11:55;6.33;;;4.90;;
15358;SDS011;7779;49.596;11.070;2023-02-28T16:14:29;10.63;;;5.20;;
15358;SDS011;7779;49.596;11.070;2023-02-28T16:16:56;6.77;;;5.40;;
15358;SDS011;7779;49.596;11.070;2023-02-28T16:19:33;6.20;;;5.23;;
15358;SDS011;7779;49.596;11.070;2023-02-28T16:21:59;6.43;;;5.33;;
15358;SDS011;7779;49.596;11.070;2023-02-28T16:24:26;6.47;;;5.53;;
15358;SDS011;7779;49.596;11.070;2023-02-28T16:26:52;5.87;;;4.80;;
15358;SDS011;7779;49.596;11.070;2023-02-28T16:29:32;5.70;;;5.10;;
15358;SDS011;7779;49.596;11.070;2023-02-28T16:32:04;6.83;;;5.40;;
15358;SDS011;7779;49.596;11.070;2023-02-28T16:34:31;6.93;;;5.20;;
15358;SDS011;7779;49.596;11.070;2023-02-28T16:36:56;6.97;;;5.90;;
15358;SDS011;7779;49.596;11.070;2023-02-28T16:39:23;6.37;;;5.50;;
15358;SDS011;7779;49.596;11.070;2023-02-28T16:41:49;6.50;;;5.63;;
15358;SDS011;7779;49.596;11.070;2023-02-28T16:44:29;7.77;;;5.83;;
15358;SDS011;7779;49.596;11.070;2023-02-28T16:47:00;7.97;;;5.30;;
15358;SDS011;7779;49.596;11.070;2023-02-28T16:49:27;9.47;;;5.60;;
15358;SDS011;7779;49.596;11.070;2023-02-28T16:51:53;6.43;;;5.73;;
15358;SDS011;7779;49.596;11.070;2023-02-28T16:54:19;7.93;;;5.67;;
15358;SDS011;7779;49.596;11.070;2023-02-28T16:56:45;6.17;;;4.90;;
15358;SDS011;7779;49.596;11.070;2023-02-28T16:59:13;7.30;;;5.63;;
15358;SDS011;7779;49.596;11.070;2023-02-28T17:01:45;9.10;;;5.67;;
15358;SDS011;7779;49.596;11.070;2023-02-28T17:04:11;6.83;;;5.23;;
15358;SDS011;7779;49.596;11.070;2023-02-28T17:06:37;9.10;;;5.00;;
15358;SDS011;7779;49.596;11.070;2023-02-28T17:09:03;8.17;;;5.47;;
15358;SDS011;7779;49.596;11.070;2023-02-28T17:11:29;8.17;;;5.53;;
15358;SDS011;7779;49.596;11.070;2023-02-28T17:13:54;8.87;;;5.70;;
15358;SDS011;7779;49.596;11.070;2023-02-28T17:16:30;7.73;;;5.47;;
15358;SDS011;7779;49.596;11.070;2023-02-28T17:19:00;7.40;;;5.03;;
15358;SDS011;7779;49.596;11.070;2023-02-28T17:21:30;6.77;;;5.40;;
15358;SDS011;7779;49.596;11.070;2023-02-28T17:23:58;6.93;;;5.83;;
15358;SDS011;7779;49.596;11.070;2023-02-28T17:26:24;8.03;;;5.57;;
15358;SDS011;7779;49.596;11.070;2023-02-28T17:28:52;7.30;;;6.13;;
15358;SDS011;7779;49.596;11.070;2023-02-28T17:31:20;8.60;;;6.10;;
15358;SDS011;7779;49.596;11.070;2023-02-28T17:33:49;8.00;;;6.17;;